createdAt,value
2019-03-26T00:01:35.158Z,1.81
2019-03-26T00:04:06.140Z,2.05
2019-03-26T00:06:30.537Z,2.07
2019-03-26T00:08:57.180Z,2.17
2019-03-26T00:11:23.755Z,2.33
2019-03-26T00:13:50.443Z,2.60
2019-03-26T00:16:17.073Z,2.65
2019-03-26T00:18:43.669Z,2.64
2019-03-26T00:21:10.360Z,2.81
2019-03-26T00:23:36.915Z,2.96
2019-03-26T00:26:03.805Z,2.90
2019-03-26T00:28:30.546Z,2.90
2019-03-26T00:30:58.182Z,2.94
2019-03-26T00:33:35.798Z,3.17
2019-03-26T00:35:53.346Z,3.30
2019-03-26T00:38:19.934Z,3.41
2019-03-26T00:40:46.606Z,3.53
2019-03-26T00:43:13.180Z,3.65
2019-03-26T00:45:39.869Z,3.59
2019-03-26T00:48:06.723Z,3.62
2019-03-26T00:50:34.696Z,3.71
2019-03-26T00:53:01.321Z,3.62
2019-03-26T00:55:29.229Z,3.65
2019-03-26T00:57:56.397Z,3.75
2019-03-26T01:00:28.691Z,3.78
2019-03-26T01:02:55.359Z,3.84
2019-03-26T01:05:22.098Z,3.76
2019-03-26T01:07:48.687Z,3.71
2019-03-26T01:10:22.773Z,3.78
2019-03-26T01:12:49.328Z,3.64
2019-03-26T01:15:15.902Z,3.52
2019-03-26T01:17:42.512Z,3.53
2019-03-26T01:20:09.379Z,3.70
2019-03-26T01:22:36.035Z,3.76
2019-03-26T01:25:04.296Z,3.69
2019-03-26T01:27:31.158Z,3.53
2019-03-26T01:29:57.771Z,3.58
2019-03-26T01:32:24.529Z,3.58
2019-03-26T01:34:51.085Z,3.44
2019-03-26T01:37:17.738Z,3.39
2019-03-26T01:39:44.385Z,3.50
2019-03-26T01:42:11.134Z,3.60
2019-03-26T01:44:37.698Z,3.58
2019-03-26T01:47:04.447Z,3.75
2019-03-26T01:49:31.198Z,3.67
2019-03-26T01:51:57.847Z,3.62
2019-03-26T01:54:24.576Z,3.64
2019-03-26T01:56:51.139Z,3.71
2019-03-26T01:59:17.868Z,3.78
2019-03-26T02:01:44.506Z,3.54
2019-03-26T02:04:11.150Z,3.78
2019-03-26T02:06:37.735Z,3.82
2019-03-26T02:09:04.598Z,3.69
2019-03-26T02:11:31.886Z,3.61
2019-03-26T02:13:58.496Z,3.66
2019-03-26T02:16:25.142Z,3.67
2019-03-26T02:18:51.708Z,3.67
2019-03-26T02:21:19.297Z,3.84
2019-03-26T02:23:45.926Z,3.76
2019-03-26T02:26:12.659Z,3.89
2019-03-26T02:28:39.193Z,4.04
2019-03-26T02:31:06.002Z,4.00
2019-03-26T02:33:32.874Z,3.82
2019-03-26T02:35:59.535Z,3.76
2019-03-26T02:38:26.213Z,3.78
2019-03-26T02:40:53.019Z,3.83
2019-03-26T02:43:19.589Z,3.62
2019-03-26T02:45:46.180Z,3.78
2019-03-26T02:48:12.952Z,3.85
2019-03-26T02:50:40.710Z,3.88
2019-03-26T02:53:09.037Z,3.88
2019-03-26T02:55:35.885Z,3.70
2019-03-26T02:58:02.685Z,3.85
2019-03-26T03:00:29.501Z,3.89
2019-03-26T03:02:56.447Z,3.94
2019-03-26T03:05:35.264Z,3.91
2019-03-26T03:07:51.630Z,3.98
2019-03-26T03:10:18.485Z,3.94
2019-03-26T03:12:45.463Z,3.94
2019-03-26T03:15:12.426Z,3.86
2019-03-26T03:17:39.418Z,3.99
2019-03-26T03:20:07.969Z,3.66
2019-03-26T03:22:34.589Z,3.69
2019-03-26T03:25:01.324Z,3.76
2019-03-26T03:27:27.895Z,3.77
2019-03-26T03:29:55.057Z,3.78
2019-03-26T03:32:21.833Z,3.79
2019-03-26T03:34:48.417Z,3.74
2019-03-26T03:37:16.170Z,3.57
2019-03-26T03:39:42.924Z,3.50
2019-03-26T03:42:09.468Z,3.59
2019-03-26T03:44:36.296Z,3.58
2019-03-26T03:47:03.649Z,3.63
2019-03-26T03:49:30.809Z,3.54
2019-03-26T03:52:01.586Z,3.66
2019-03-26T03:54:28.757Z,3.61
2019-03-26T03:56:57.008Z,3.72
2019-03-26T03:59:26.683Z,3.73
2019-03-26T04:01:53.492Z,3.77
2019-03-26T04:04:20.142Z,3.85
2019-03-26T04:06:46.835Z,3.72
2019-03-26T04:09:13.559Z,3.52
2019-03-26T04:11:40.355Z,3.58
2019-03-26T04:14:07.040Z,3.72
2019-03-26T04:16:33.607Z,3.79
2019-03-26T04:19:00.163Z,3.83
2019-03-26T04:21:26.812Z,3.43
2019-03-26T04:23:53.487Z,3.59
2019-03-26T04:26:20.111Z,3.65
2019-03-26T04:28:46.784Z,3.78
2019-03-26T04:31:13.368Z,3.80
2019-03-26T04:33:40.229Z,3.58
2019-03-26T04:36:07.002Z,3.71
2019-03-26T04:38:33.576Z,3.53
2019-03-26T04:41:00.145Z,3.78
2019-03-26T04:43:26.945Z,3.76
2019-03-26T04:46:49.864Z,3.70
2019-03-26T04:49:16.492Z,3.70
2019-03-26T04:51:43.087Z,3.79
2019-03-26T04:54:09.861Z,3.73
2019-03-26T04:56:36.493Z,3.73
2019-03-26T04:59:03.140Z,3.60
2019-03-26T05:01:34.173Z,3.65
2019-03-26T05:04:00.951Z,3.67
2019-03-26T05:06:37.445Z,3.59
2019-03-26T05:08:56.170Z,3.67
2019-03-26T05:11:22.764Z,3.84
2019-03-26T05:13:50.210Z,3.66
2019-03-26T05:16:16.846Z,3.85
2019-03-26T05:18:44.742Z,3.67
2019-03-26T05:21:11.362Z,3.59
2019-03-26T05:23:38.028Z,3.53
2019-03-26T05:26:06.092Z,3.46
2019-03-26T05:28:32.790Z,3.42
2019-03-26T05:30:59.524Z,3.55
2019-03-26T05:33:26.202Z,3.55
2019-03-26T05:35:52.982Z,3.70
2019-03-26T05:38:19.710Z,3.92
2019-03-26T05:40:46.349Z,3.91
2019-03-26T05:43:13.006Z,3.86
2019-03-26T05:45:39.672Z,4.07
2019-03-26T05:48:06.301Z,4.03
2019-03-26T05:50:33.044Z,4.03
2019-03-26T05:52:59.662Z,4.05
2019-03-26T05:55:27.651Z,3.92
2019-03-26T05:57:55.322Z,3.74
2019-03-26T06:00:23.910Z,3.63
2019-03-26T06:02:50.552Z,3.84
2019-03-26T06:05:17.132Z,3.69
2019-03-26T06:07:43.808Z,3.92
2019-03-26T06:10:11.599Z,4.31
2019-03-26T06:12:38.268Z,4.07
2019-03-26T06:15:07.454Z,4.13
2019-03-26T06:17:34.168Z,4.07
2019-03-26T06:20:00.783Z,3.72
2019-03-26T06:22:27.439Z,3.76
2019-03-26T06:24:54.293Z,4.20
2019-03-26T06:27:20.982Z,3.97
2019-03-26T06:29:47.634Z,4.04
2019-03-26T06:32:14.339Z,4.15
2019-03-26T06:34:40.896Z,4.31
2019-03-26T06:37:17.427Z,4.39
2019-03-26T06:39:36.112Z,4.26
2019-03-26T06:42:02.859Z,4.11
2019-03-26T06:44:29.537Z,3.94
2019-03-26T06:46:56.134Z,4.03
2019-03-26T06:49:22.738Z,4.12
2019-03-26T06:51:49.407Z,3.85
2019-03-26T06:54:16.027Z,3.64
2019-03-26T06:56:42.620Z,3.75
2019-03-26T06:59:09.258Z,3.49
2019-03-26T07:01:36.020Z,3.19
2019-03-26T07:04:02.994Z,3.30
2019-03-26T07:06:29.652Z,3.55
2019-03-26T07:08:56.228Z,3.44
2019-03-26T07:11:23.622Z,3.75
2019-03-26T07:13:50.176Z,3.84
2019-03-26T07:16:16.809Z,3.70
2019-03-26T07:19:39.711Z,3.84
2019-03-26T07:22:06.556Z,4.05
2019-03-26T07:24:33.428Z,3.92
2019-03-26T07:27:00.213Z,3.92
2019-03-26T07:29:27.067Z,3.55
2019-03-26T07:31:53.624Z,3.91
2019-03-26T07:34:20.231Z,3.62
2019-03-26T07:36:46.931Z,3.54
2019-03-26T07:39:13.523Z,3.65
2019-03-26T07:41:40.407Z,3.93
2019-03-26T07:44:07.118Z,3.93
2019-03-26T07:46:33.739Z,4.05
2019-03-26T07:49:00.407Z,3.96
2019-03-26T07:51:26.978Z,4.28
2019-03-26T07:53:53.632Z,4.19
2019-03-26T07:56:20.268Z,4.03
2019-03-26T07:58:46.904Z,3.83
2019-03-26T08:01:13.564Z,4.03
2019-03-26T08:03:40.628Z,4.14
2019-03-26T08:06:07.663Z,3.89
2019-03-26T08:08:34.193Z,4.31
2019-03-26T08:11:38.171Z,4.68
2019-03-26T08:14:05.003Z,4.78
2019-03-26T08:16:31.824Z,4.21
2019-03-26T08:18:58.419Z,4.39
2019-03-26T08:21:25.094Z,4.56
2019-03-26T08:23:51.658Z,4.32
2019-03-26T08:26:18.373Z,4.52
2019-03-26T08:28:44.967Z,4.65
2019-03-26T08:31:11.653Z,4.95
2019-03-26T08:33:38.229Z,4.73
2019-03-26T08:36:04.878Z,4.84
2019-03-26T08:38:33.513Z,4.79
2019-03-26T08:41:00.416Z,4.76
2019-03-26T08:43:27.053Z,4.65
2019-03-26T08:45:53.814Z,4.67
2019-03-26T08:48:20.474Z,4.88
2019-03-26T08:50:47.057Z,5.17
2019-03-26T08:53:13.691Z,5.26
2019-03-26T08:55:40.319Z,5.33
2019-03-26T08:58:06.952Z,5.43
2019-03-26T09:00:33.571Z,5.66
2019-03-26T09:03:00.242Z,5.62
2019-03-26T09:05:26.990Z,5.65
2019-03-26T09:07:53.593Z,5.78
2019-03-26T09:10:20.524Z,5.76
2019-03-26T09:12:48.514Z,5.60
2019-03-26T09:15:15.414Z,5.72
2019-03-26T09:17:44.404Z,5.56
2019-03-26T09:20:11.980Z,5.49
2019-03-26T09:22:38.642Z,5.69
2019-03-26T09:25:07.053Z,5.51
2019-03-26T09:27:34.071Z,5.45
2019-03-26T09:30:00.654Z,5.62
2019-03-26T09:32:27.227Z,5.56
2019-03-26T09:34:53.904Z,5.63
2019-03-26T09:37:20.663Z,5.64
2019-03-26T09:39:47.280Z,5.49
2019-03-26T09:42:13.908Z,5.53
2019-03-26T09:44:40.480Z,5.48
2019-03-26T09:47:16.142Z,5.18
2019-03-26T09:49:35.800Z,5.66
2019-03-26T09:52:02.455Z,5.47
2019-03-26T09:54:29.100Z,5.73
2019-03-26T09:56:55.982Z,5.16
2019-03-26T09:59:22.540Z,5.50
2019-03-26T10:01:49.182Z,5.06
2019-03-26T10:04:17.099Z,5.62
2019-03-26T10:07:21.678Z,5.68
2019-03-26T10:09:46.472Z,5.21
2019-03-26T10:12:13.076Z,5.52
2019-03-26T10:14:39.752Z,5.51
2019-03-26T10:17:06.939Z,5.65
2019-03-26T10:19:33.615Z,5.78
2019-03-26T10:22:01.460Z,5.44
2019-03-26T10:24:28.097Z,5.32
2019-03-26T10:26:54.717Z,5.45
2019-03-26T10:29:30.000Z,5.50
2019-03-26T10:31:50.356Z,5.66
2019-03-26T10:34:17.482Z,5.41
2019-03-26T10:36:44.464Z,5.36
2019-03-26T10:39:11.225Z,5.51
2019-03-26T10:41:37.867Z,5.66
2019-03-26T10:44:04.490Z,5.53
2019-03-26T10:46:32.421Z,5.80
2019-03-26T10:48:59.028Z,5.65
2019-03-26T10:51:25.616Z,5.98
2019-03-26T10:53:52.340Z,5.77
2019-03-26T10:56:22.911Z,5.58
2019-03-26T10:58:49.545Z,5.38
2019-03-26T11:01:16.389Z,5.48
2019-03-26T11:03:43.173Z,5.44
2019-03-26T11:06:09.972Z,5.26
2019-03-26T11:08:39.814Z,5.49
2019-03-26T11:11:06.502Z,5.46
2019-03-26T11:13:33.376Z,5.94
2019-03-26T11:16:00.198Z,6.18
2019-03-26T11:18:26.737Z,6.63
2019-03-26T11:21:02.446Z,7.12
2019-03-26T11:23:21.955Z,7.47
2019-03-26T11:25:48.861Z,7.62
2019-03-26T11:28:15.540Z,7.38
2019-03-26T11:30:44.058Z,6.92
2019-03-26T11:33:10.713Z,7.06
2019-03-26T11:35:37.266Z,6.69
2019-03-26T11:38:03.954Z,6.39
2019-03-26T11:40:30.723Z,6.53
2019-03-26T11:42:57.458Z,6.44
2019-03-26T11:45:24.292Z,6.73
2019-03-26T11:47:50.987Z,6.54
2019-03-26T11:50:17.768Z,6.51
2019-03-26T11:52:44.351Z,6.85
2019-03-26T11:55:11.407Z,6.71
2019-03-26T11:57:39.136Z,6.92
2019-03-26T12:00:09.866Z,7.01
2019-03-26T12:02:36.701Z,7.33
2019-03-26T12:05:06.161Z,7.42
2019-03-26T12:07:33.107Z,7.12
2019-03-26T12:09:59.751Z,7.11
2019-03-26T12:12:26.373Z,7.36
2019-03-26T12:14:53.324Z,7.41
2019-03-26T12:17:19.901Z,7.47
2019-03-26T12:19:46.756Z,6.88
2019-03-26T12:22:13.386Z,7.19
2019-03-26T12:24:39.980Z,7.18
2019-03-26T12:27:06.577Z,7.25
2019-03-26T12:29:33.184Z,6.82
2019-03-26T12:31:59.939Z,7.20
2019-03-26T12:34:26.907Z,6.83
2019-03-26T12:36:53.566Z,7.26
2019-03-26T12:39:20.082Z,7.24
2019-03-26T12:41:46.772Z,7.09
2019-03-26T12:44:13.399Z,7.06
2019-03-26T12:46:40.115Z,7.14
2019-03-26T12:49:06.975Z,7.09
2019-03-26T12:51:33.670Z,6.93
2019-03-26T12:54:00.234Z,7.12
2019-03-26T12:56:27.050Z,6.93
2019-03-26T12:58:53.722Z,6.76
2019-03-26T13:01:20.536Z,6.81
2019-03-26T13:03:47.295Z,6.89
2019-03-26T13:06:14.254Z,6.80
2019-03-26T13:08:40.849Z,6.71
2019-03-26T13:11:07.443Z,6.89
2019-03-26T13:13:34.251Z,6.65
2019-03-26T13:16:01.151Z,6.74
2019-03-26T13:18:27.855Z,7.15
2019-03-26T13:20:54.459Z,6.95
2019-03-26T13:23:21.228Z,6.99
2019-03-26T13:25:48.058Z,7.25
2019-03-26T13:28:14.968Z,7.05
2019-03-26T13:30:41.565Z,7.23
2019-03-26T13:33:08.351Z,7.17
2019-03-26T13:35:34.929Z,7.07
2019-03-26T13:38:01.700Z,6.93
2019-03-26T13:40:29.592Z,6.86
2019-03-26T13:42:57.487Z,7.06
2019-03-26T13:45:24.230Z,6.97
2019-03-26T13:47:51.009Z,7.21
2019-03-26T13:50:19.252Z,7.13
2019-03-26T13:52:46.130Z,7.05
2019-03-26T13:55:16.878Z,6.97
2019-03-26T13:57:43.536Z,7.01
2019-03-26T14:00:12.596Z,6.77
2019-03-26T14:02:39.492Z,6.70
2019-03-26T14:05:11.805Z,6.58
2019-03-26T14:07:38.753Z,6.91
2019-03-26T14:10:06.074Z,7.00
2019-03-26T14:12:32.845Z,6.85
2019-03-26T14:14:59.588Z,6.83
2019-03-26T14:17:26.241Z,7.11
2019-03-26T14:19:52.854Z,6.54
2019-03-26T14:22:19.516Z,6.59
2019-03-26T14:24:46.096Z,6.81
2019-03-26T14:27:12.850Z,6.19
2019-03-26T14:29:39.410Z,5.91
2019-03-26T14:32:06.196Z,6.23
2019-03-26T14:34:32.892Z,6.10
2019-03-26T14:36:59.685Z,5.59
2019-03-26T14:39:26.240Z,6.34
2019-03-26T14:41:52.914Z,6.04
2019-03-26T14:44:19.757Z,6.54
2019-03-26T14:46:46.485Z,6.65
2019-03-26T14:49:13.099Z,6.20
2019-03-26T14:51:39.688Z,6.10
2019-03-26T14:54:06.428Z,6.22
2019-03-26T14:56:33.176Z,5.92
2019-03-26T14:58:59.759Z,5.85
2019-03-26T15:01:26.952Z,6.05
2019-03-26T15:03:53.938Z,5.68
2019-03-26T15:06:20.586Z,5.14
2019-03-26T15:08:47.614Z,5.47
2019-03-26T15:11:15.404Z,5.64
2019-03-26T15:13:42.291Z,5.08
2019-03-26T15:16:09.149Z,3.76
2019-03-26T15:18:35.934Z,2.84
2019-03-26T15:21:03.024Z,2.42
2019-03-26T15:23:29.591Z,2.59
2019-03-26T15:25:56.184Z,2.51
2019-03-26T15:28:22.958Z,2.63
2019-03-26T15:30:49.532Z,2.58
2019-03-26T15:33:19.792Z,2.50
2019-03-26T15:35:46.478Z,2.39
2019-03-26T15:38:14.172Z,2.76
2019-03-26T15:40:41.096Z,2.80
2019-03-26T15:43:08.042Z,2.70
2019-03-26T15:45:35.142Z,2.73
2019-03-26T15:48:01.946Z,2.61
2019-03-26T15:50:34.434Z,2.43
2019-03-26T15:53:01.260Z,2.85
2019-03-26T15:55:27.814Z,2.80
2019-03-26T15:57:54.355Z,2.82
2019-03-26T16:00:28.485Z,2.83
2019-03-26T16:02:55.404Z,2.86
2019-03-26T16:05:23.239Z,2.94
2019-03-26T16:07:49.833Z,2.95
2019-03-26T16:10:16.615Z,2.93
2019-03-26T16:12:43.278Z,3.15
2019-03-26T16:15:11.210Z,3.15
2019-03-26T16:17:38.173Z,3.08
2019-03-26T16:20:10.033Z,2.75
2019-03-26T16:22:36.672Z,2.86
2019-03-26T16:25:05.764Z,2.80
2019-03-26T16:27:32.428Z,2.81
2019-03-26T16:29:59.228Z,2.87
2019-03-26T16:32:26.027Z,2.81
2019-03-26T16:34:54.487Z,2.94
2019-03-26T16:37:21.608Z,2.88
2019-03-26T16:39:48.262Z,3.01
2019-03-26T16:42:15.042Z,2.80
2019-03-26T16:44:42.265Z,2.83
2019-03-26T16:47:08.875Z,2.66
2019-03-26T16:49:35.519Z,2.75
2019-03-26T16:52:02.739Z,2.97
2019-03-26T16:54:29.560Z,2.94
2019-03-26T16:56:57.440Z,2.76
2019-03-26T16:59:24.162Z,3.00
2019-03-26T17:01:50.791Z,3.06
2019-03-26T17:04:17.529Z,3.08
2019-03-26T17:06:44.365Z,3.08
2019-03-26T17:09:11.015Z,3.09
2019-03-26T17:11:37.552Z,3.07
2019-03-26T17:14:04.351Z,3.02
2019-03-26T17:16:31.005Z,2.98
2019-03-26T17:18:57.747Z,3.02
2019-03-26T17:21:24.338Z,2.89
2019-03-26T17:23:50.975Z,3.05
2019-03-26T17:26:17.701Z,2.73
2019-03-26T17:28:44.367Z,2.89
2019-03-26T17:31:11.714Z,2.82
2019-03-26T17:33:38.298Z,2.86
2019-03-26T17:36:06.713Z,2.99
2019-03-26T17:38:36.237Z,3.09
2019-03-26T17:41:03.832Z,2.94
2019-03-26T17:43:30.564Z,3.13
2019-03-26T17:45:59.153Z,3.05
2019-03-26T17:48:25.777Z,3.11
2019-03-26T17:50:52.389Z,2.89
2019-03-26T17:53:19.273Z,2.86
2019-03-26T17:55:46.306Z,2.68
2019-03-26T17:58:12.974Z,2.82
2019-03-26T18:00:42.843Z,2.81
2019-03-26T18:03:09.996Z,2.95
2019-03-26T18:05:37.847Z,2.61
2019-03-26T18:08:04.937Z,2.75
2019-03-26T18:10:31.641Z,2.77
2019-03-26T18:13:01.399Z,2.83
2019-03-26T18:15:28.219Z,2.70
2019-03-26T18:17:54.906Z,2.71
2019-03-26T18:20:32.501Z,2.76
2019-03-26T18:22:50.908Z,2.76
2019-03-26T18:25:17.583Z,2.67
2019-03-26T18:27:44.170Z,2.48
2019-03-26T18:30:11.703Z,2.44
2019-03-26T18:32:38.438Z,2.58
2019-03-26T18:35:05.686Z,2.22
2019-03-26T18:37:32.474Z,2.32
2019-03-26T18:39:59.202Z,2.48
2019-03-26T18:42:25.917Z,2.51
2019-03-26T18:44:52.982Z,2.41
2019-03-26T18:47:19.825Z,2.50
2019-03-26T18:49:46.412Z,2.44
2019-03-26T18:52:13.211Z,2.07
2019-03-26T18:54:39.972Z,2.24
2019-03-26T18:57:07.124Z,2.40
2019-03-26T18:59:33.826Z,2.30
2019-03-26T19:02:00.425Z,2.32
2019-03-26T19:04:27.065Z,2.36
2019-03-26T19:06:53.785Z,2.41
2019-03-26T19:09:20.576Z,2.51
2019-03-26T19:11:47.464Z,2.29
2019-03-26T19:14:14.286Z,2.40
2019-03-26T19:16:40.888Z,2.44
2019-03-26T19:19:07.511Z,2.56
2019-03-26T19:21:34.071Z,2.50
2019-03-26T19:24:04.352Z,2.50
2019-03-26T19:26:30.958Z,2.37
2019-03-26T19:28:57.530Z,2.55
2019-03-26T19:31:24.176Z,2.44
2019-03-26T19:33:51.005Z,2.44
2019-03-26T19:36:17.616Z,2.31
2019-03-26T19:38:44.304Z,2.40
2019-03-26T19:41:12.034Z,2.53
2019-03-26T19:43:38.560Z,2.39
2019-03-26T19:46:05.136Z,2.23
2019-03-26T19:48:32.104Z,2.25
2019-03-26T19:50:58.868Z,2.41
2019-03-26T19:53:25.421Z,2.34
2019-03-26T19:55:52.216Z,2.35
2019-03-26T19:58:18.822Z,2.48
2019-03-26T20:00:45.384Z,2.36
2019-03-26T20:03:12.134Z,2.41
2019-03-26T20:05:38.793Z,2.49
2019-03-26T20:08:05.701Z,2.44
2019-03-26T20:10:32.768Z,2.17
2019-03-26T20:12:59.687Z,2.35
2019-03-26T20:15:27.460Z,2.10
2019-03-26T20:17:54.134Z,2.18
2019-03-26T20:20:20.998Z,2.39
2019-03-26T20:22:47.830Z,2.57
2019-03-26T20:25:14.844Z,2.46
2019-03-26T20:27:42.163Z,2.42
2019-03-26T20:30:11.167Z,2.42
2019-03-26T20:32:38.065Z,2.36
2019-03-26T20:35:07.307Z,2.47
2019-03-26T20:37:35.089Z,2.56
2019-03-26T20:40:05.169Z,2.48
2019-03-26T20:42:34.584Z,2.30
2019-03-26T20:45:01.497Z,2.41
2019-03-26T20:47:30.168Z,2.28
2019-03-26T20:49:56.842Z,2.46
2019-03-26T20:52:23.430Z,2.30
2019-03-26T20:54:51.191Z,2.33
2019-03-26T20:57:18.150Z,2.26
2019-03-26T20:59:45.678Z,2.30
2019-03-26T21:02:12.561Z,2.28
2019-03-26T21:04:39.222Z,2.23
2019-03-26T21:07:08.836Z,2.14
2019-03-26T21:09:35.638Z,2.11
2019-03-26T21:12:02.675Z,2.19
2019-03-26T21:14:29.250Z,2.13
2019-03-26T21:16:56.153Z,1.98
2019-03-26T21:19:22.922Z,2.06
2019-03-26T21:21:52.865Z,2.20
2019-03-26T21:24:18.219Z,2.30
2019-03-26T21:26:44.930Z,2.23
2019-03-26T21:29:11.745Z,2.23
2019-03-26T21:31:39.161Z,2.33
2019-03-26T21:34:06.414Z,2.32
2019-03-26T21:36:33.409Z,2.42
2019-03-26T21:39:00.233Z,2.36
2019-03-26T21:41:26.982Z,2.28
2019-03-26T21:44:03.719Z,2.33
2019-03-26T21:46:22.404Z,2.29
2019-03-26T21:48:49.287Z,2.21
2019-03-26T21:51:16.545Z,2.09
2019-03-26T21:53:48.183Z,2.29
2019-03-26T21:56:15.384Z,2.11
2019-03-26T21:58:41.947Z,2.15
2019-03-26T22:01:08.878Z,1.95
2019-03-26T22:03:35.488Z,1.94
2019-03-26T22:06:02.531Z,2.10
2019-03-26T22:08:29.101Z,2.11
2019-03-26T22:10:55.777Z,2.02
2019-03-26T22:13:22.480Z,2.05
2019-03-26T22:15:49.304Z,2.13
2019-03-26T22:18:16.084Z,2.04
2019-03-26T22:20:42.769Z,2.03
2019-03-26T22:23:09.470Z,1.77
2019-03-26T22:25:36.245Z,1.98
2019-03-26T22:28:03.383Z,1.94
2019-03-26T22:30:29.954Z,2.11
2019-03-26T22:32:56.620Z,2.17
2019-03-26T22:35:23.709Z,2.13
2019-03-26T22:37:50.271Z,1.80
2019-03-26T22:40:17.169Z,1.82
2019-03-26T22:42:43.753Z,1.69
2019-03-26T22:45:11.482Z,1.65
2019-03-26T22:47:38.879Z,1.95
2019-03-26T22:50:08.355Z,2.00
2019-03-26T22:52:34.922Z,1.89
2019-03-26T22:55:01.586Z,1.68
2019-03-26T22:57:28.201Z,1.85
2019-03-26T22:59:56.576Z,1.90
2019-03-26T23:02:23.243Z,1.67
2019-03-26T23:04:49.935Z,1.64
2019-03-26T23:07:16.769Z,1.71
2019-03-26T23:09:43.571Z,1.78
2019-03-26T23:12:10.180Z,1.81
2019-03-26T23:14:44.958Z,1.77
2019-03-26T23:17:05.985Z,1.84
2019-03-26T23:19:32.752Z,1.56
2019-03-26T23:21:59.570Z,1.63
2019-03-26T23:24:26.268Z,1.61
2019-03-26T23:26:52.985Z,1.70
2019-03-26T23:29:19.724Z,1.68
2019-03-26T23:31:47.542Z,1.84
2019-03-26T23:34:14.256Z,1.28
2019-03-26T23:36:40.800Z,1.50
2019-03-26T23:39:07.751Z,1.54
2019-03-26T23:41:34.951Z,1.66
2019-03-26T23:44:01.625Z,1.61
2019-03-26T23:46:28.443Z,1.61
2019-03-26T23:48:55.151Z,1.36
2019-03-26T23:51:21.858Z,1.66
2019-03-26T23:53:48.570Z,1.43
2019-03-26T23:56:15.488Z,1.53
2019-03-26T23:58:42.153Z,1.40
